sensor_id;sensor_type;location;lat;lon;timestamp;P1;durP1;ratioP1;P2;durP2;ratioP2
20161;SDS011;51382;53.180;15.414;2022-12-20T01:41:42;80.40;;;16.80;;
20161;SDS011;51382;53.180;15.414;2022-12-20T01:56:51;84.80;;;17.50;;
20161;SDS011;51382;53.180;15.414;2022-12-20T02:12:10;89.90;;;18.70;;
20161;SDS011;51382;53.180;15.414;2022-12-20T02:27:38;107.20;;;24.00;;
20161;SDS011;51382;53.180;15.414;2022-12-20T02:42:56;68.50;;;17.60;;
20161;SDS011;51382;53.180;15.414;2022-12-20T02:58:08;84.70;;;18.20;;
20161;SDS011;51382;53.180;15.414;2022-12-20T03:13:18;67.90;;;17.80;;
20161;SDS011;51382;53.180;15.414;2022-12-20T03:28:38;62.80;;;15.70;;
20161;SDS011;51382;53.180;15.414;2022-12-20T03:43:45;59.60;;;14.60;;
20161;SDS011;51382;53.180;15.414;2022-12-20T03:58:52;58.30;;;15.10;;
20161;SDS011;51382;53.180;15.414;2022-12-20T04:13:59;81.40;;;16.10;;
20161;SDS011;51382;53.180;15.414;2022-12-20T04:29:06;67.30;;;17.30;;
20161;SDS011;51382;53.180;15.414;2022-12-20T04:44:16;70.40;;;19.20;;
20161;SDS011;51382;53.180;15.414;2022-12-20T04:59:25;63.00;;;16.50;;
20161;SDS011;51382;53.180;15.414;2022-12-20T05:14:39;75.30;;;22.00;;
20161;SDS011;51382;53.180;15.414;2022-12-20T05:29:46;87.10;;;21.00;;
20161;SDS011;51382;53.180;15.414;2022-12-20T05:44:58;64.00;;;21.50;;
20161;SDS011;51382;53.180;15.414;2022-12-20T06:00:16;78.30;;;19.40;;
20161;SDS011;51382;53.180;15.414;2022-12-20T06:15:28;151.80;;;26.60;;
20161;SDS011;51382;53.180;15.414;2022-12-20T06:30:40;113.60;;;21.10;;
20161;SDS011;51382;53.180;15.414;2022-12-20T06:46:08;58.90;;;15.80;;
20161;SDS011;51382;53.180;15.414;2022-12-20T07:01:21;57.30;;;18.40;;
20161;SDS011;51382;53.180;15.414;2022-12-20T07:16:32;73.20;;;25.60;;
20161;SDS011;51382;53.180;15.414;2022-12-20T07:31:43;63.80;;;20.70;;
20161;SDS011;51382;53.180;15.414;2022-12-20T07:46:54;67.70;;;20.50;;
20161;SDS011;51382;53.180;15.414;2022-12-20T08:02:06;59.20;;;18.80;;
20161;SDS011;51382;53.180;15.414;2022-12-20T08:17:18;80.00;;;23.00;;
20161;SDS011;51382;53.180;15.414;2022-12-20T08:32:30;60.00;;;19.90;;
20161;SDS011;51382;53.180;15.414;2022-12-20T08:47:41;49.90;;;17.30;;
20161;SDS011;51382;53.180;15.414;2022-12-20T09:02:53;58.10;;;20.40;;
20161;SDS011;51382;53.180;15.414;2022-12-20T09:18:05;70.30;;;29.30;;
20161;SDS011;51382;53.180;15.414;2022-12-20T09:33:16;67.60;;;18.60;;
20161;SDS011;51382;53.180;15.414;2022-12-20T09:48:30;76.40;;;22.00;;
20161;SDS011;51382;53.180;15.414;2022-12-20T10:03:42;60.90;;;19.10;;
20161;SDS011;51382;53.180;15.414;2022-12-20T10:19:00;70.80;;;21.10;;
20161;SDS011;51382;53.180;15.414;2022-12-20T10:34:17;53.90;;;19.00;;
20161;SDS011;51382;53.180;15.414;2022-12-20T10:49:33;63.00;;;21.50;;
20161;SDS011;51382;53.180;15.414;2022-12-20T11:04:57;87.60;;;22.10;;
20161;SDS011;51382;53.180;15.414;2022-12-20T11:20:27;68.10;;;19.50;;
20161;SDS011;51382;53.180;15.414;2022-12-20T11:35:49;84.80;;;30.10;;
20161;SDS011;51382;53.180;15.414;2022-12-20T11:51:11;66.10;;;22.10;;
20161;SDS011;51382;53.180;15.414;2022-12-20T12:06:28;82.50;;;24.10;;
20161;SDS011;51382;53.180;15.414;2022-12-20T12:21:43;48.40;;;16.30;;
20161;SDS011;51382;53.180;15.414;2022-12-20T12:37:24;83.00;;;25.10;;
20161;SDS011;51382;53.180;15.414;2022-12-20T12:52:44;70.90;;;23.00;;
20161;SDS011;51382;53.180;15.414;2022-12-20T13:07:58;81.00;;;19.60;;
20161;SDS011;51382;53.180;15.414;2022-12-20T13:23:22;112.10;;;25.80;;
20161;SDS011;51382;53.180;15.414;2022-12-20T13:38:54;85.30;;;21.20;;
20161;SDS011;51382;53.180;15.414;2022-12-20T13:54:14;86.30;;;25.10;;
20161;SDS011;51382;53.180;15.414;2022-12-20T14:09:31;91.40;;;30.30;;
20161;SDS011;51382;53.180;15.414;2022-12-20T14:24:44;118.80;;;44.90;;
20161;SDS011;51382;53.180;15.414;2022-12-20T14:39:57;85.90;;;26.70;;
20161;SDS011;51382;53.180;15.414;2022-12-20T14:55:06;70.70;;;25.20;;
20161;SDS011;51382;53.180;15.414;2022-12-20T15:10:20;96.10;;;29.30;;
20161;SDS011;51382;53.180;15.414;2022-12-20T15:25:33;93.10;;;24.00;;
20161;SDS011;51382;53.180;15.414;2022-12-20T15:40:48;85.70;;;29.40;;
20161;SDS011;51382;53.180;15.414;2022-12-20T15:55:59;88.80;;;27.50;;
20161;SDS011;51382;53.180;15.414;2022-12-20T16:11:06;115.30;;;43.00;;
20161;SDS011;51382;53.180;15.414;2022-12-20T16:26:24;107.70;;;38.50;;
20161;SDS011;51382;53.180;15.414;2022-12-20T16:41:38;74.40;;;23.20;;
20161;SDS011;51382;53.180;15.414;2022-12-20T16:56:52;90.50;;;22.30;;
20161;SDS011;51382;53.180;15.414;2022-12-20T17:12:08;72.90;;;23.10;;
20161;SDS011;51382;53.180;15.414;2022-12-20T17:27:23;100.40;;;35.30;;
20161;SDS011;51382;53.180;15.414;2022-12-20T17:42:34;82.00;;;25.50;;
20161;SDS011;51382;53.180;15.414;2022-12-20T17:57:47;96.50;;;29.90;;
20161;SDS011;51382;53.180;15.414;2022-12-20T18:12:58;148.70;;;53.80;;
20161;SDS011;51382;53.180;15.414;2022-12-20T18:28:09;122.00;;;40.50;;
20161;SDS011;51382;53.180;15.414;2022-12-20T18:43:25;87.10;;;26.50;;
20161;SDS011;51382;53.180;15.414;2022-12-20T18:58:32;105.40;;;25.90;;
20161;SDS011;51382;53.180;15.414;2022-12-20T19:13:38;329.90;;;58.70;;
20161;SDS011;51382;53.180;15.414;2022-12-20T19:28:50;143.00;;;55.50;;
20161;SDS011;51382;53.180;15.414;2022-12-20T19:44:05;100.10;;;42.30;;
20161;SDS011;51382;53.180;15.414;2022-12-20T19:59:21;130.60;;;51.20;;
20161;SDS011;51382;53.180;15.414;2022-12-20T20:14:32;216.50;;;81.20;;
20161;SDS011;51382;53.180;15.414;2022-12-20T20:29:44;185.40;;;43.40;;
20161;SDS011;51382;53.180;15.414;2022-12-20T20:44:55;146.40;;;47.40;;
20161;SDS011;51382;53.180;15.414;2022-12-20T21:00:08;87.20;;;32.20;;
20161;SDS011;51382;53.180;15.414;2022-12-20T21:15:22;104.50;;;25.60;;
20161;SDS011;51382;53.180;15.414;2022-12-20T21:30:37;85.50;;;28.30;;
20161;SDS011;51382;53.180;15.414;2022-12-20T21:45:51;74.60;;;23.80;;
20161;SDS011;51382;53.180;15.414;2022-12-20T22:01:06;67.60;;;21.70;;
20161;SDS011;51382;53.180;15.414;2022-12-20T22:16:20;102.50;;;29.10;;
20161;SDS011;51382;53.180;15.414;2022-12-20T22:31:32;100.60;;;33.20;;
20161;SDS011;51382;53.180;15.414;2022-12-20T22:46:38;97.80;;;38.70;;
20161;SDS011;51382;53.180;15.414;2022-12-20T23:02:02;96.70;;;35.60;;
20161;SDS011;51382;53.180;15.414;2022-12-20T23:17:13;75.50;;;26.60;;
20161;SDS011;51382;53.180;15.414;2022-12-20T23:32:20;83.20;;;27.70;;
20161;SDS011;51382;53.180;15.414;2022-12-20T23:47:33;77.10;;;22.60;;
